createdAt,value
2018-12-11T00:02:09.088Z,-1.50
2018-12-11T00:04:39.900Z,-1.53
2018-12-11T00:07:10.663Z,-1.58
2018-12-11T00:09:41.447Z,-1.58
2018-12-11T00:12:12.379Z,-1.59
2018-12-11T00:14:43.187Z,-1.60
2018-12-11T00:17:13.762Z,-1.61
2018-12-11T00:19:45.386Z,-1.63
2018-12-11T00:22:16.089Z,-1.65
2018-12-11T00:24:46.889Z,-1.66
2018-12-11T00:27:17.708Z,-1.66
2018-12-11T00:29:48.505Z,-1.61
2018-12-11T00:32:20.118Z,-1.61
2018-12-11T00:34:50.934Z,-1.64
2018-12-11T00:37:22.482Z,-1.63
2018-12-11T00:39:53.419Z,-1.69
2018-12-11T00:42:24.100Z,-1.67
2018-12-11T00:44:54.860Z,-1.60
2018-12-11T00:47:25.645Z,-1.76
2018-12-11T00:49:56.123Z,-1.93
2018-12-11T00:52:26.880Z,-2.03
2018-12-11T00:54:57.783Z,-1.96
2018-12-11T00:57:28.425Z,-2.02
2018-12-11T00:59:59.195Z,-2.05
2018-12-11T01:02:29.967Z,-2.07
2018-12-11T01:05:01.391Z,-2.04
2018-12-11T01:07:32.667Z,-2.09
2018-12-11T01:10:05.481Z,-2.14
2018-12-11T01:12:36.234Z,-2.20
2018-12-11T01:15:08.045Z,-2.16
2018-12-11T01:17:38.743Z,-2.18
2018-12-11T01:20:09.870Z,-2.20
2018-12-11T01:22:40.692Z,-2.21
2018-12-11T01:25:11.296Z,-2.24
2018-12-11T01:27:42.208Z,-2.29
2018-12-11T01:30:12.894Z,-2.20
2018-12-11T01:32:43.792Z,-2.20
2018-12-11T01:35:14.475Z,-2.19
2018-12-11T01:37:45.141Z,-2.22
2018-12-11T01:40:15.873Z,-2.28
2018-12-11T01:42:46.724Z,-2.28
2018-12-11T01:45:17.448Z,-2.20
2018-12-11T01:47:48.239Z,-2.17
2018-12-11T01:50:19.019Z,-2.16
2018-12-11T01:52:49.737Z,-2.17
2018-12-11T01:55:20.487Z,-2.23
2018-12-11T01:57:51.077Z,-2.25
2018-12-11T02:00:24.251Z,-2.32
2018-12-11T02:02:55.021Z,-2.39
2018-12-11T02:05:25.600Z,-2.45
2018-12-11T02:07:56.372Z,-2.49
2018-12-11T02:10:27.403Z,-2.52
2018-12-11T02:12:58.243Z,-2.57
2018-12-11T02:15:28.892Z,-2.65
2018-12-11T02:17:59.867Z,-2.69
2018-12-11T02:20:31.280Z,-2.69
2018-12-11T02:23:02.159Z,-2.62
2018-12-11T02:25:32.577Z,-2.62
2018-12-11T02:28:03.267Z,-2.61
2018-12-11T02:30:34.123Z,-2.62
2018-12-11T02:33:05.066Z,-2.66
2018-12-11T02:35:35.814Z,-2.71
2018-12-11T02:38:06.513Z,-2.74
2018-12-11T02:40:37.146Z,-2.73
2018-12-11T02:43:07.650Z,-2.70
2018-12-11T02:45:38.352Z,-2.67
2018-12-11T02:48:09.014Z,-2.72
2018-12-11T02:50:39.588Z,-2.78
2018-12-11T02:53:10.415Z,-2.87
2018-12-11T02:55:41.049Z,-2.93
2018-12-11T02:58:11.611Z,-2.95
2018-12-11T03:00:42.408Z,-2.95
2018-12-11T03:03:13.029Z,-2.90
2018-12-11T03:05:44.462Z,-2.90
2018-12-11T03:08:15.279Z,-2.94
2018-12-11T03:10:47.730Z,-2.99
2018-12-11T03:13:18.323Z,-2.96
2018-12-11T03:15:49.171Z,-2.97
2018-12-11T03:18:21.460Z,-2.98
2018-12-11T03:20:52.091Z,-3.01
2018-12-11T03:23:22.654Z,-3.05
2018-12-11T03:25:53.432Z,-3.09
2018-12-11T03:28:24.131Z,-3.16
2018-12-11T03:30:54.852Z,-3.23
2018-12-11T03:33:25.692Z,-3.31
2018-12-11T03:35:56.269Z,-3.38
2018-12-11T03:38:27.065Z,-3.36
2018-12-11T03:40:58.661Z,-3.37
2018-12-11T03:43:29.499Z,-3.40
2018-12-11T03:46:00.123Z,-3.42
2018-12-11T03:48:30.901Z,-3.41
2018-12-11T03:51:01.544Z,-3.37
2018-12-11T03:53:32.028Z,-3.37
2018-12-11T03:56:02.794Z,-3.47
2018-12-11T03:58:33.382Z,-3.47
2018-12-11T04:01:04.248Z,-3.43
2018-12-11T04:03:35.130Z,-3.48
2018-12-11T04:06:05.685Z,-3.56
2018-12-11T04:08:36.220Z,-3.62
2018-12-11T04:11:06.930Z,-3.61
2018-12-11T04:13:37.538Z,-3.60
2018-12-11T04:16:08.356Z,-3.58
2018-12-11T04:18:39.026Z,-3.55
2018-12-11T04:21:09.627Z,-3.45
2018-12-11T04:23:40.332Z,-3.47
2018-12-11T04:26:10.962Z,-3.49
2018-12-11T04:28:42.138Z,-3.50
2018-12-11T04:31:13.067Z,-3.56
2018-12-11T04:33:43.827Z,-3.56
2018-12-11T04:36:14.442Z,-3.57
2018-12-11T04:38:45.209Z,-3.63
2018-12-11T04:41:15.743Z,-3.59
2018-12-11T04:43:46.728Z,-3.58
2018-12-11T04:46:17.773Z,-3.62
2018-12-11T04:48:48.544Z,-3.55
2018-12-11T04:51:19.299Z,-3.50
2018-12-11T04:53:49.884Z,-3.54
2018-12-11T04:56:20.601Z,-3.57
2018-12-11T04:58:51.197Z,-3.60
2018-12-11T05:01:21.877Z,-3.59
2018-12-11T05:03:54.375Z,-3.65
2018-12-11T05:06:25.388Z,-3.72
2018-12-11T05:08:56.330Z,-3.71
2018-12-11T05:11:27.176Z,-3.71
2018-12-11T05:13:57.974Z,-3.67
2018-12-11T05:16:28.785Z,-3.65
2018-12-11T05:18:59.463Z,-3.64
2018-12-11T05:21:30.370Z,-3.67
2018-12-11T05:24:01.182Z,-3.70
2018-12-11T05:26:31.902Z,-3.77
2018-12-11T05:29:02.607Z,-3.83
2018-12-11T05:31:33.314Z,-3.77
2018-12-11T05:34:04.170Z,-3.77
2018-12-11T05:36:34.905Z,-3.76
2018-12-11T05:39:08.874Z,-3.78
2018-12-11T05:41:39.676Z,-3.81
2018-12-11T05:44:11.713Z,-3.87
2018-12-11T05:46:43.142Z,-3.89
2018-12-11T05:49:14.141Z,-3.97
2018-12-11T05:51:44.713Z,-3.96
2018-12-11T05:54:15.425Z,-3.93
2018-12-11T05:56:46.053Z,-3.91
2018-12-11T05:59:17.039Z,-3.91
2018-12-11T06:01:47.799Z,-3.92
2018-12-11T06:04:18.752Z,-3.92
2018-12-11T06:06:49.772Z,-3.88
2018-12-11T06:09:20.522Z,-3.83
2018-12-11T06:11:52.136Z,-3.84
2018-12-11T06:14:23.226Z,-3.93
2018-12-11T06:16:54.197Z,-3.99
2018-12-11T06:19:24.902Z,-4.07
2018-12-11T06:21:55.522Z,-4.05
2018-12-11T06:24:26.514Z,-4.07
2018-12-11T06:26:58.004Z,-4.12
2018-12-11T06:29:28.658Z,-4.16
2018-12-11T06:31:59.232Z,-4.19
2018-12-11T06:34:29.951Z,-4.09
2018-12-11T06:37:00.536Z,-4.09
2018-12-11T06:39:31.384Z,-4.09
2018-12-11T06:42:02.145Z,-4.07
2018-12-11T06:44:33.015Z,-4.02
2018-12-11T06:47:03.737Z,-4.01
2018-12-11T06:49:34.560Z,-4.03
2018-12-11T06:52:05.422Z,-4.02
2018-12-11T06:54:36.467Z,-3.99
2018-12-11T06:57:07.211Z,-3.99
2018-12-11T06:59:38.312Z,-3.94
2018-12-11T07:02:09.147Z,-3.92
2018-12-11T07:04:40.053Z,-3.91
2018-12-11T07:07:11.484Z,-3.90
2018-12-11T07:09:42.196Z,-3.88
2018-12-11T07:12:12.952Z,-3.61
2018-12-11T07:14:44.929Z,-1.43
2018-12-11T07:17:15.600Z,0.71
2018-12-11T07:19:46.362Z,2.36
2018-12-11T07:22:17.281Z,3.07
2018-12-11T07:24:47.823Z,4.42
2018-12-11T07:27:18.700Z,5.40
2018-12-11T07:29:49.949Z,3.96
2018-12-11T07:32:26.482Z,3.94
2018-12-11T07:34:57.175Z,6.03
2018-12-11T07:37:28.007Z,7.30
2018-12-11T07:39:58.719Z,8.09
2018-12-11T07:42:29.914Z,8.23
2018-12-11T07:45:02.890Z,8.98
2018-12-11T07:47:33.841Z,9.73
2018-12-11T07:50:04.772Z,9.95
2018-12-11T07:52:35.823Z,10.57
2018-12-11T07:55:08.010Z,11.17
2018-12-11T07:57:39.266Z,11.32
2018-12-11T08:00:10.316Z,11.25
2018-12-11T08:02:41.081Z,11.76
2018-12-11T08:05:12.742Z,11.49
2018-12-11T08:07:44.647Z,11.93
2018-12-11T08:10:15.506Z,12.83
2018-12-11T08:12:46.545Z,13.04
2018-12-11T08:15:17.902Z,14.04
2018-12-11T08:17:48.752Z,13.79
2018-12-11T08:20:20.989Z,12.84
2018-12-11T08:22:51.969Z,13.95
2018-12-11T08:25:22.974Z,14.35
2018-12-11T08:27:54.289Z,13.30
2018-12-11T08:30:25.127Z,13.51
2018-12-11T08:32:57.213Z,13.45
2018-12-11T08:35:28.182Z,13.13
2018-12-11T08:37:59.498Z,13.54
2018-12-11T08:40:30.496Z,13.68
2018-12-11T08:43:01.804Z,14.86
2018-12-11T08:45:32.882Z,15.81
2018-12-11T08:48:03.844Z,15.00
2018-12-11T08:50:34.839Z,14.30
2018-12-11T08:53:05.867Z,14.51
2018-12-11T08:55:36.904Z,14.85
2018-12-11T08:58:08.299Z,16.19
2018-12-11T09:00:39.161Z,17.13
2018-12-11T09:03:10.245Z,17.36
2018-12-11T09:05:41.369Z,17.57
2018-12-11T09:08:12.272Z,16.46
2018-12-11T09:10:43.530Z,16.68
2018-12-11T09:13:14.497Z,17.07
2018-12-11T09:15:45.917Z,17.98
2018-12-11T09:18:16.586Z,18.26
2018-12-11T09:20:47.433Z,18.24
2018-12-11T09:23:18.409Z,18.21
2018-12-11T09:25:49.916Z,18.05
2018-12-11T09:28:22.182Z,17.10
2018-12-11T09:30:52.867Z,17.33
2018-12-11T09:33:23.669Z,17.92
2018-12-11T09:35:55.993Z,17.62
2018-12-11T09:38:27.069Z,18.19
2018-12-11T09:40:58.140Z,18.50
2018-12-11T09:43:29.792Z,18.64
2018-12-11T09:46:01.027Z,18.40
2018-12-11T09:48:32.041Z,18.70
2018-12-11T09:51:03.139Z,18.60
2018-12-11T09:53:34.029Z,18.39
2018-12-11T09:56:05.307Z,18.76
2018-12-11T09:58:36.247Z,17.78
2018-12-11T10:01:07.413Z,18.04
2018-12-11T10:03:38.527Z,17.18
2018-12-11T10:06:09.609Z,16.30
2018-12-11T10:08:41.102Z,15.38
2018-12-11T10:11:12.832Z,14.09
2018-12-11T10:13:43.887Z,15.53
2018-12-11T10:16:15.606Z,17.14
2018-12-11T10:18:46.921Z,17.99
2018-12-11T10:21:18.056Z,18.94
2018-12-11T10:23:49.646Z,19.07
2018-12-11T10:26:20.323Z,19.88
2018-12-11T10:28:51.278Z,20.30
2018-12-11T10:31:23.539Z,20.90
2018-12-11T10:33:54.295Z,20.47
2018-12-11T10:36:25.255Z,21.56
2018-12-11T10:38:56.163Z,21.25
2018-12-11T10:41:27.254Z,21.41
2018-12-11T10:43:58.368Z,21.08
2018-12-11T10:46:33.785Z,21.72
2018-12-11T10:49:03.173Z,21.57
2018-12-11T10:51:35.737Z,21.66
2018-12-11T10:54:06.782Z,21.61
2018-12-11T10:56:38.437Z,21.88
2018-12-11T10:59:10.405Z,21.50
2018-12-11T11:01:46.129Z,21.54
2018-12-11T11:04:18.470Z,22.01
2018-12-11T11:06:50.526Z,21.90
2018-12-11T11:09:22.156Z,22.27
2018-12-11T11:11:53.713Z,22.49
2018-12-11T11:14:25.331Z,21.51
2018-12-11T11:16:57.640Z,20.95
2018-12-11T11:19:29.465Z,21.15
2018-12-11T11:22:00.723Z,20.47
2018-12-11T11:24:31.940Z,20.07
2018-12-11T11:27:03.525Z,20.61
2018-12-11T11:29:35.171Z,19.80
2018-12-11T11:32:06.588Z,19.97
2018-12-11T11:34:42.596Z,19.51
2018-12-11T11:37:15.069Z,19.79
2018-12-11T11:39:46.004Z,19.33
2018-12-11T11:42:18.388Z,19.71
2018-12-11T11:44:50.866Z,19.69
2018-12-11T11:47:22.569Z,19.78
2018-12-11T11:49:53.577Z,19.51
2018-12-11T11:52:25.756Z,18.28
2018-12-11T11:54:56.509Z,19.21
2018-12-11T11:57:29.887Z,19.26
2018-12-11T12:00:01.025Z,19.74
2018-12-11T12:02:33.550Z,20.46
2018-12-11T12:05:04.925Z,20.16
2018-12-11T12:07:35.671Z,19.25
2018-12-11T12:10:09.667Z,19.60
2018-12-11T12:12:40.401Z,19.82
2018-12-11T12:15:11.985Z,19.45
2018-12-11T12:17:43.173Z,18.65
2018-12-11T12:20:14.130Z,19.19
2018-12-11T12:22:44.808Z,18.75
2018-12-11T12:25:15.756Z,19.16
2018-12-11T12:27:47.034Z,18.28
2018-12-11T12:30:17.723Z,18.37
2018-12-11T12:32:48.896Z,18.58
2018-12-11T12:35:19.915Z,18.55
2018-12-11T12:37:50.945Z,18.81
2018-12-11T12:40:22.164Z,18.64
2018-12-11T12:42:53.982Z,18.49
2018-12-11T12:45:25.110Z,18.18
2018-12-11T12:47:55.839Z,17.80
2018-12-11T12:50:26.969Z,18.26
2018-12-11T12:52:58.288Z,17.61
2018-12-11T12:55:29.658Z,17.59
2018-12-11T12:58:00.785Z,17.92
2018-12-11T13:00:31.813Z,18.40
2018-12-11T13:03:03.099Z,18.43
2018-12-11T13:05:34.175Z,17.76
2018-12-11T13:08:05.026Z,17.61
2018-12-11T13:10:36.151Z,17.53
2018-12-11T13:13:09.348Z,17.48
2018-12-11T13:15:40.508Z,18.04
2018-12-11T13:18:11.769Z,18.11
2018-12-11T13:20:42.907Z,17.94
2018-12-11T13:23:14.028Z,18.58
2018-12-11T13:25:45.067Z,18.87
2018-12-11T13:28:15.725Z,18.84
2018-12-11T13:30:47.085Z,18.70
2018-12-11T13:33:17.969Z,18.75
2018-12-11T13:35:48.804Z,18.60
2018-12-11T13:38:19.581Z,18.31
2018-12-11T13:40:50.520Z,18.10
2018-12-11T13:43:21.299Z,18.08
2018-12-11T13:45:52.410Z,17.50
2018-12-11T13:48:23.742Z,17.50
2018-12-11T13:50:56.097Z,17.44
2018-12-11T13:53:26.886Z,17.78
2018-12-11T13:55:57.732Z,17.32
2018-12-11T13:58:29.093Z,17.10
2018-12-11T14:01:00.360Z,16.69
2018-12-11T14:03:31.336Z,17.10
2018-12-11T14:06:02.320Z,17.44
2018-12-11T14:08:35.034Z,18.11
2018-12-11T14:11:06.816Z,18.06
2018-12-11T14:13:37.626Z,18.49
2018-12-11T14:16:08.759Z,18.43
2018-12-11T14:18:43.264Z,18.35
2018-12-11T14:21:15.025Z,18.27
2018-12-11T14:23:46.242Z,18.40
2018-12-11T14:26:17.496Z,18.63
2018-12-11T14:28:48.858Z,18.43
2018-12-11T14:31:21.822Z,18.29
2018-12-11T14:33:54.657Z,18.11
2018-12-11T14:36:27.204Z,17.74
2018-12-11T14:38:58.575Z,17.47
2018-12-11T14:41:29.674Z,17.39
2018-12-11T14:44:01.633Z,17.05
2018-12-11T14:46:32.489Z,16.87
2018-12-11T14:49:04.034Z,16.77
2018-12-11T14:51:35.677Z,16.45
2018-12-11T14:54:08.003Z,16.17
2018-12-11T14:56:39.146Z,15.81
2018-12-11T14:59:10.544Z,15.66
2018-12-11T15:01:44.488Z,15.59
2018-12-11T15:04:17.048Z,15.55
2018-12-11T15:06:48.926Z,15.19
2018-12-11T15:09:26.006Z,14.85
2018-12-11T15:11:57.904Z,14.66
2018-12-11T15:14:31.673Z,14.39
2018-12-11T15:17:04.428Z,13.79
2018-12-11T15:19:35.402Z,12.94
2018-12-11T15:22:07.101Z,12.06
2018-12-11T15:24:38.083Z,11.26
2018-12-11T15:27:10.574Z,10.66
2018-12-11T15:29:44.355Z,10.09
2018-12-11T15:32:15.890Z,9.60
2018-12-11T15:34:47.769Z,9.15
2018-12-11T15:37:20.657Z,8.71
2018-12-11T15:39:51.803Z,8.31
2018-12-11T15:42:25.184Z,8.01
2018-12-11T15:44:57.413Z,7.83
2018-12-11T15:47:28.774Z,7.65
2018-12-11T15:50:00.039Z,7.41
2018-12-11T15:52:31.198Z,7.17
2018-12-11T15:55:01.998Z,7.03
2018-12-11T15:57:33.512Z,6.83
2018-12-11T16:00:05.279Z,6.66
2018-12-11T16:02:36.771Z,6.47
2018-12-11T16:05:08.826Z,6.23
2018-12-11T16:07:39.949Z,5.97
2018-12-11T16:10:11.389Z,5.73
2018-12-11T16:12:42.746Z,5.54
2018-12-11T16:15:14.345Z,5.38
2018-12-11T16:17:45.118Z,5.27
2018-12-11T16:20:17.368Z,5.27
2018-12-11T16:22:48.917Z,5.22
2018-12-11T16:25:21.132Z,5.24
2018-12-11T16:27:52.269Z,5.15
2018-12-11T16:30:23.507Z,5.04
2018-12-11T16:32:54.645Z,4.87
2018-12-11T16:35:25.826Z,4.74
2018-12-11T16:37:57.298Z,4.60
2018-12-11T16:40:28.949Z,4.46
2018-12-11T16:43:00.038Z,4.35
2018-12-11T16:45:32.936Z,4.35
2018-12-11T16:48:03.930Z,4.32
2018-12-11T16:50:34.884Z,4.23
2018-12-11T16:53:06.603Z,4.10
2018-12-11T16:55:38.074Z,3.93
2018-12-11T16:58:09.773Z,3.67
2018-12-11T17:00:41.456Z,3.50
2018-12-11T17:03:13.517Z,3.38
2018-12-11T17:05:44.750Z,3.30
2018-12-11T17:08:16.985Z,3.32
2018-12-11T17:10:49.253Z,3.28
2018-12-11T17:13:20.585Z,3.32
2018-12-11T17:15:53.017Z,3.24
2018-12-11T17:18:25.130Z,3.12
2018-12-11T17:20:56.489Z,3.02
2018-12-11T17:23:29.248Z,2.90
2018-12-11T17:26:01.270Z,2.85
2018-12-11T17:28:33.072Z,2.82
2018-12-11T17:31:04.410Z,2.82
2018-12-11T17:33:36.469Z,2.88
2018-12-11T17:36:07.719Z,2.90
2018-12-11T17:38:40.120Z,2.93
2018-12-11T17:41:12.336Z,2.86
2018-12-11T17:43:43.939Z,2.75
2018-12-11T17:46:15.649Z,2.62
2018-12-11T17:48:48.537Z,2.47
2018-12-11T17:51:21.442Z,2.25
2018-12-11T17:53:53.226Z,2.03
2018-12-11T17:56:24.638Z,1.83
2018-12-11T17:58:56.927Z,1.70
2018-12-11T18:01:30.143Z,1.61
2018-12-11T18:04:01.473Z,1.58
2018-12-11T18:06:32.843Z,1.56
2018-12-11T18:09:05.793Z,1.54
2018-12-11T18:11:37.407Z,1.49
2018-12-11T18:14:09.174Z,1.48
2018-12-11T18:16:41.310Z,1.45
2018-12-11T18:19:13.293Z,1.42
2018-12-11T18:21:44.307Z,1.41
2018-12-11T18:24:17.124Z,1.34
2018-12-11T18:26:48.741Z,1.23
2018-12-11T18:29:19.925Z,1.19
2018-12-11T18:31:51.240Z,1.15
2018-12-11T18:34:22.839Z,1.11
2018-12-11T18:36:55.036Z,1.10
2018-12-11T18:39:26.281Z,1.06
2018-12-11T18:41:57.217Z,0.96
2018-12-11T18:44:28.600Z,0.88
2018-12-11T18:47:00.197Z,0.80
2018-12-11T18:49:31.428Z,0.63
2018-12-11T18:52:02.691Z,0.45
2018-12-11T18:54:33.710Z,0.30
2018-12-11T18:57:05.203Z,0.23
2018-12-11T18:59:36.755Z,0.17
2018-12-11T19:02:08.037Z,0.10
2018-12-11T19:04:39.462Z,0.07
2018-12-11T19:07:12.432Z,0.11
2018-12-11T19:09:45.442Z,0.10
2018-12-11T19:12:19.361Z,0.12
2018-12-11T19:14:53.166Z,0.13
2018-12-11T19:17:27.524Z,0.18
2018-12-11T19:20:00.084Z,0.21
2018-12-11T19:22:33.474Z,0.23
2018-12-11T19:25:07.952Z,0.26
2018-12-11T19:27:41.607Z,0.29
2018-12-11T19:30:14.520Z,0.24
2018-12-11T19:32:47.429Z,0.16
2018-12-11T19:35:20.159Z,0.05
2018-12-11T19:37:54.566Z,-0.01
2018-12-11T19:40:27.991Z,-0.13
2018-12-11T19:43:06.808Z,-0.13
2018-12-11T19:45:36.298Z,-0.19
2018-12-11T19:48:09.283Z,-0.36
2018-12-11T19:50:42.975Z,-0.52
2018-12-11T19:53:17.976Z,-0.66
2018-12-11T19:55:50.244Z,-0.79
2018-12-11T19:58:24.027Z,-0.95
2018-12-11T20:00:56.808Z,-1.07
2018-12-11T20:03:29.689Z,-1.07
2018-12-11T20:06:02.048Z,-1.08
2018-12-11T20:08:34.550Z,-1.07
2018-12-11T20:11:06.132Z,-1.01
2018-12-11T20:13:38.262Z,-0.96
2018-12-11T20:16:10.305Z,-0.95
2018-12-11T20:18:43.368Z,-0.98
2018-12-11T20:21:14.732Z,-1.05
2018-12-11T20:23:47.683Z,-1.11
2018-12-11T20:26:19.043Z,-1.14
2018-12-11T20:28:50.432Z,-1.15
2018-12-11T20:31:21.804Z,-1.15
2018-12-11T20:33:52.709Z,-1.16
2018-12-11T20:36:25.672Z,-1.15
2018-12-11T20:38:56.942Z,-1.07
2018-12-11T20:41:28.145Z,-1.25
2018-12-11T20:44:00.853Z,-1.45
2018-12-11T20:46:33.451Z,-1.57
2018-12-11T20:49:05.625Z,-1.66
2018-12-11T20:51:36.847Z,-1.71
2018-12-11T20:54:08.639Z,-1.79
2018-12-11T20:56:40.418Z,-1.86
2018-12-11T20:59:11.398Z,-1.88
2018-12-11T21:01:42.540Z,-1.85
2018-12-11T21:04:13.765Z,-1.80
2018-12-11T21:06:45.434Z,-1.69
2018-12-11T21:09:20.476Z,-1.70
2018-12-11T21:11:55.323Z,-1.70
2018-12-11T21:14:26.709Z,-1.70
2018-12-11T21:16:59.581Z,-1.76
2018-12-11T21:19:31.549Z,-1.70
2018-12-11T21:22:09.017Z,-1.67
2018-12-11T21:24:40.044Z,-1.65
2018-12-11T21:27:11.921Z,-1.65
2018-12-11T21:29:43.278Z,-1.73
2018-12-11T21:32:15.732Z,-1.82
2018-12-11T21:34:47.041Z,-1.87
2018-12-11T21:37:19.102Z,-1.95
2018-12-11T21:39:50.022Z,-2.05
2018-12-11T21:42:21.119Z,-2.06
2018-12-11T21:44:52.148Z,-2.08
2018-12-11T21:47:23.266Z,-2.14
2018-12-11T21:49:54.387Z,-2.20
2018-12-11T21:52:25.201Z,-2.25
2018-12-11T21:54:56.389Z,-2.28
2018-12-11T21:57:27.629Z,-2.28
2018-12-11T21:59:59.112Z,-2.33
2018-12-11T22:02:30.870Z,-2.35
2018-12-11T22:05:02.666Z,-2.32
2018-12-11T22:07:33.511Z,-2.34
2018-12-11T22:10:06.401Z,-2.30
2018-12-11T22:12:37.395Z,-2.30
2018-12-11T22:15:08.738Z,-2.31
2018-12-11T22:17:40.130Z,-2.31
2018-12-11T22:20:11.356Z,-2.33
2018-12-11T22:22:42.297Z,-2.26
2018-12-11T22:25:13.755Z,-2.25
2018-12-11T22:27:45.168Z,-2.36
2018-12-11T22:30:16.751Z,-2.45
2018-12-11T22:32:48.425Z,-2.43
2018-12-11T22:35:19.960Z,-2.40
2018-12-11T22:37:51.158Z,-2.40
2018-12-11T22:40:22.509Z,-2.47
2018-12-11T22:42:53.809Z,-2.56
2018-12-11T22:45:24.709Z,-2.60
2018-12-11T22:47:55.667Z,-2.58
2018-12-11T22:50:27.074Z,-2.56
2018-12-11T22:52:58.028Z,-2.60
2018-12-11T22:55:29.431Z,-2.65
2018-12-11T22:58:00.921Z,-2.62
2018-12-11T23:00:32.954Z,-2.65
2018-12-11T23:03:03.934Z,-2.75
2018-12-11T23:05:34.869Z,-2.86
2018-12-11T23:08:05.990Z,-2.95
2018-12-11T23:10:36.947Z,-3.03
2018-12-11T23:13:07.843Z,-3.09
2018-12-11T23:15:39.007Z,-3.13
2018-12-11T23:18:10.042Z,-3.16
2018-12-11T23:20:41.245Z,-3.13
2018-12-11T23:23:12.365Z,-3.08
2018-12-11T23:25:43.498Z,-3.02
2018-12-11T23:28:14.390Z,-3.02
2018-12-11T23:30:44.948Z,-3.04
2018-12-11T23:33:15.974Z,-3.09
2018-12-11T23:35:46.844Z,-3.12
2018-12-11T23:38:17.670Z,-3.21
2018-12-11T23:40:48.742Z,-3.33
2018-12-11T23:43:20.301Z,-3.51
2018-12-11T23:45:51.154Z,-3.58
2018-12-11T23:48:22.602Z,-3.60
2018-12-11T23:50:53.551Z,-3.64
2018-12-11T23:53:24.374Z,-3.64
2018-12-11T23:55:55.088Z,-3.65
2018-12-11T23:58:25.916Z,-3.65
